Time;durP1;ratioP1;P1;durP2;ratioP2;P2;SDS_P1;SDS_P2;PMS_P1;PMS_P2;Temp;Humidity;BMP_temperature;BMP_pressure;BME280_temperature;BME280_humidity;BME280_pressure;Samples;Min_cycle;Max_cycle;Signal;HPM_P1;HPM_P2
2021/09/14 00:00:15;;;;;;;;;10.00;9.00;;;;;22.30;59.10;100835.31;5033908;28;56674;-80
2021/09/14 00:02:40;;;;;;;;;12.33;12.33;;;;;22.31;59.51;100830.78;5029073;28;45263;-78
2021/09/14 00:05:06;;;;;;;;;9.00;9.00;;;;;22.30;59.14;100835.31;5020199;28;45251;-78
2021/09/14 00:07:31;;;;;;;;;10.33;9.00;;;;;22.29;59.14;100836.25;5034451;28;45616;-83
2021/09/14 00:09:57;;;;;;;;;9.00;9.00;;;;;22.28;59.29;100837.19;5036274;28;55719;-78
2021/09/14 00:12:22;;;;;;;;;11.00;9.00;;;;;22.25;59.58;100839.09;5036766;28;45331;-78
2021/09/14 00:14:48;;;;;;;;;9.00;9.00;;;;;22.27;59.14;100850.69;5033312;28;49336;-78
2021/09/14 00:17:13;;;;;;;;;11.00;9.00;;;;;22.24;59.59;100840.91;5033901;28;45696;-79
2021/09/14 00:19:39;;;;;;;;;10.33;10.00;;;;;22.23;59.23;100845.41;5036356;28;57124;-80
2021/09/14 00:22:04;;;;;;;;;9.00;9.00;;;;;22.22;59.00;100848.19;5030947;28;45234;-79
2021/09/14 00:24:30;;;;;;;;;8.00;8.00;;;;;22.21;58.94;100843.69;5029649;28;45174;-79
2021/09/14 00:26:55;;;;;;;;;9.00;7.67;;;;;22.18;59.21;100847.41;5023045;28;45628;-81
2021/09/14 00:29:20;;;;;;;;;8.33;7.00;;;;;22.15;59.25;100842.13;5034901;28;47308;-81
2021/09/14 00:31:46;;;;;;;;;8.67;8.67;;;;;22.14;59.48;100834.13;5028408;28;50847;-78
2021/09/14 00:34:11;;;;;;;;;8.00;8.00;;;;;22.10;59.50;100835.13;5024974;28;55397;-84
2021/09/14 00:36:37;;;;;;;;;6.33;6.00;;;;;22.10;59.03;100845.88;5034419;28;53666;-83
2021/09/14 00:39:02;;;;;;;;;14.00;8.67;;;;;22.07;59.10;100830.75;5023865;28;57090;-78
2021/09/14 00:41:27;;;;;;;;;8.00;7.00;;;;;22.07;59.37;100837.94;5030754;28;45370;-78
2021/09/14 00:43:57;;;;;;;;;9.33;9.00;;;;;22.05;58.90;100835.31;5027832;28;55282;-77
2021/09/14 00:46:22;;;;;;;;;7.67;6.67;;;;;22.05;59.20;100829.03;5036582;28;45542;-78
2021/09/14 00:48:48;;;;;;;;;10.00;9.00;;;;;22.04;58.95;100828.16;5034517;28;46561;-78
2021/09/14 00:51:13;;;;;;;;;10.00;7.67;;;;;22.03;59.14;100829.09;5018556;28;55054;-78
2021/09/14 00:53:38;;;;;;;;;9.00;7.00;;;;;21.95;58.91;100823.13;5020657;28;45378;-77
2021/09/14 00:56:04;;;;;;;;;10.00;8.33;;;;;21.98;59.22;100834.63;5025019;28;45554;-79
2021/09/14 00:58:30;;;;;;;;;7.00;7.00;;;;;21.94;59.41;100826.72;5034774;28;59769;-79
2021/09/14 01:00:56;;;;;;;;;6.67;6.67;;;;;21.98;59.48;100831.94;5042904;28;45979;-78
2021/09/14 01:03:21;;;;;;;;;8.00;6.67;;;;;21.97;58.98;100832.00;5042531;28;54410;-79
2021/09/14 01:05:46;;;;;;;;;8.67;7.00;;;;;21.96;59.08;100836.53;5035192;28;49844;-79
2021/09/14 01:08:12;;;;;;;;;8.00;7.00;;;;;21.96;59.12;100846.41;5040474;28;47294;-78
2021/09/14 01:10:37;;;;;;;;;8.00;6.67;;;;;21.95;59.24;100858.97;5016107;28;49513;-78
2021/09/14 01:13:03;;;;;;;;;7.33;7.33;;;;;21.94;58.91;100848.25;5033731;28;45532;-80
2021/09/14 01:15:28;;;;;;;;;8.00;8.00;;;;;21.93;58.78;100855.44;5042750;28;45418;-77
2021/09/14 01:17:53;;;;;;;;;6.33;6.33;;;;;21.91;59.16;100860.00;5042105;28;56122;-82
2021/09/14 01:20:19;;;;;;;;;7.67;7.67;;;;;21.91;58.96;100860.00;5042592;28;45288;-78
2021/09/14 01:22:45;;;;;;;;;7.00;7.00;;;;;21.89;59.47;100842.16;5032692;28;45313;-78
2021/09/14 01:25:18;;;;;;;;;8.33;8.33;;;;;21.86;59.42;100856.59;5036166;28;45323;-81
2021/09/14 01:27:43;;;;;;;;;7.00;7.00;;;;;21.87;59.61;100860.16;5038328;28;47034;-77
2021/09/14 01:30:13;;;;;;;;;7.00;6.00;;;;;21.85;59.30;100859.34;5040435;28;45343;-80
2021/09/14 01:32:46;;;;;;;;;8.00;8.00;;;;;21.81;59.77;100857.69;5040288;28;45408;-78
2021/09/14 01:35:23;;;;;;;;;7.00;7.00;;;;;21.83;59.22;100866.56;5032466;28;45304;-78
2021/09/14 01:37:48;;;;;;;;;7.67;6.67;;;;;21.78;59.87;100861.34;5039517;28;46807;-79
2021/09/14 01:40:14;;;;;;;;;7.00;7.00;;;;;21.80;59.85;100866.69;5041835;28;45249;-82
2021/09/14 01:42:39;;;;;;;;;7.00;5.00;;;;;21.78;59.54;100866.72;5037859;28;45311;-79
2021/09/14 01:45:05;;;;;;;;;8.67;8.00;;;;;21.73;60.04;100865.13;5033616;28;52993;-78
2021/09/14 01:47:31;;;;;;;;;7.00;7.00;;;;;21.76;59.86;100889.22;5041685;28;46591;-78
2021/09/14 01:49:56;;;;;;;;;9.33;8.67;;;;;21.70;59.75;100884.94;5042237;28;49367;-78
2021/09/14 01:52:22;;;;;;;;;8.33;7.00;;;;;21.74;59.57;100900.03;5042034;28;45346;-77
2021/09/14 01:54:49;;;;;;;;;8.00;7.00;;;;;21.74;59.53;100899.16;5041794;28;45572;-80
2021/09/14 01:57:19;;;;;;;;;8.00;6.00;;;;;21.72;59.95;100901.88;5028963;28;46565;-78
2021/09/14 01:59:44;;;;;;;;;8.67;7.33;;;;;21.71;59.97;100918.94;5036469;28;45391;-78
2021/09/14 02:02:16;;;;;;;;;9.00;7.00;;;;;21.70;59.94;100914.50;5042299;28;45814;-78
2021/09/14 02:04:48;;;;;;;;;8.67;8.67;;;;;21.70;59.72;100912.69;5041890;28;45273;-79
2021/09/14 02:56:30;;;;;;;;;12.67;12.67;;;;;21.65;62.59;100819.72;5030695;28;45487;-79
2021/09/14 02:58:56;;;;;;;;;9.33;8.67;;;;;21.65;63.60;100822.41;5025706;28;45360;-78
2021/09/14 03:01:22;;;;;;;;;10.00;9.00;;;;;21.64;63.54;100816.16;5032786;28;47375;-78
2021/09/14 03:03:49;;;;;;;;;13.67;10.00;;;;;21.65;63.13;100823.28;5031654;28;45429;-79
2021/09/14 03:06:15;;;;;;;;;14.00;10.33;;;;;21.62;63.18;100809.94;5036370;28;45403;-81
2021/09/14 03:08:42;;;;;;;;;12.33;12.33;;;;;21.64;63.60;100813.47;5038158;28;45331;-78
2021/09/14 03:11:12;;;;;;;;;11.33;10.00;;;;;21.58;64.12;100796.69;5035646;28;47756;-78
2021/09/14 03:13:37;;;;;;;;;12.00;10.33;;;;;21.62;64.08;100791.13;5035514;28;45440;-78
2021/09/14 03:16:04;;;;;;;;;14.00;12.00;;;;;21.58;64.03;100796.69;5034729;28;45296;-79
2021/09/14 03:18:29;;;;;;;;;16.67;13.00;;;;;21.59;64.55;100809.19;5032321;28;45481;-78
2021/09/14 03:20:55;;;;;;;;;16.00;12.33;;;;;21.57;65.05;100794.91;5026114;28;60507;-79
2021/09/14 03:23:20;;;;;;;;;13.00;12.67;;;;;21.54;65.37;100795.03;5030594;28;60158;-78
2021/09/14 03:25:45;;;;;;;;;11.00;11.00;;;;;21.53;64.63;100804.03;5024038;28;53422;-80
2021/09/14 03:28:11;;;;;;;;;13.00;13.00;;;;;21.51;65.88;100803.19;5035521;28;45142;-78
2021/09/14 03:30:37;;;;;;;;;10.00;8.67;;;;;21.43;65.94;100796.28;5024578;28;47478;-78
2021/09/14 03:33:03;;;;;;;;;12.67;9.33;;;;;21.42;65.41;100794.53;5026375;28;45333;-80
2021/09/14 03:35:28;;;;;;;;;11.33;11.33;;;;;21.42;65.34;100801.72;5025398;28;45244;-78
2021/09/14 03:37:54;;;;;;;;;12.00;12.00;;;;;21.40;65.93;100795.50;5031641;28;45554;-78
2021/09/14 03:40:19;;;;;;;;;10.00;10.00;;;;;21.37;66.52;100788.44;5030433;28;56916;-76
2021/09/14 03:42:44;;;;;;;;;14.33;12.33;;;;;21.35;65.91;100778.66;5037055;28;47354;-78
2021/09/14 03:45:10;;;;;;;;;16.00;13.00;;;;;21.30;66.49;100748.41;5033416;28;54155;-78
2021/09/14 03:47:35;;;;;;;;;13.67;13.00;;;;;21.32;66.04;100755.50;5033063;28;49075;-79
2021/09/14 03:50:01;;;;;;;;;13.33;11.67;;;;;21.30;66.69;100751.97;5029455;28;47346;-78
2021/09/14 03:52:26;;;;;;;;;12.00;12.00;;;;;21.32;66.78;100758.19;5036581;28;45450;-82
2021/09/14 03:54:51;;;;;;;;;15.33;13.67;;;;;21.32;67.03;100763.53;5030549;28;45386;-78
2021/09/14 03:57:17;;;;;;;;;12.67;12.33;;;;;21.32;66.61;100757.31;5029408;28;45446;-78
2021/09/14 03:59:42;;;;;;;;;15.00;13.00;;;;;21.31;66.68;100751.06;5029561;28;53849;-79
2021/09/14 04:02:16;;;;;;;;;12.00;11.00;;;;;21.29;67.15;100749.31;5032974;28;47088;-77
2021/09/14 04:05:47;;;;;;;;;14.67;12.33;;;;;21.28;67.24;100732.31;5023140;28;45581;-81
2021/09/14 04:10:16;;;;;;;;;14.67;12.67;;;;;21.22;67.46;100743.28;5035677;28;45773;-81
2021/09/14 04:12:41;;;;;;;;;12.00;12.00;;;;;21.26;66.80;100741.38;5035140;28;45428;-78
2021/09/14 04:15:07;;;;;;;;;12.33;12.33;;;;;21.25;67.00;100739.59;5035471;28;54508;-80
2021/09/14 04:17:32;;;;;;;;;15.00;13.33;;;;;21.24;66.94;100721.72;5032426;28;45453;-81
2021/09/14 04:19:58;;;;;;;;;11.33;9.33;;;;;21.24;66.91;100717.22;5032941;28;53234;-79
2021/09/14 04:22:23;;;;;;;;;16.00;11.67;;;;;21.24;67.46;100727.09;5027351;28;51002;-78
2021/09/14 04:24:49;;;;;;;;;12.33;12.33;;;;;21.23;67.28;100736.09;5030332;28;53353;-77
2021/09/14 04:27:14;;;;;;;;;13.00;13.00;;;;;21.25;68.10;100755.69;5031008;28;45409;-81
2021/09/14 04:29:39;;;;;;;;;16.33;14.33;;;;;21.22;67.23;100758.50;5033779;28;56600;-82
2021/09/14 04:32:05;;;;;;;;;13.67;12.33;;;;;21.21;67.99;100752.25;5031670;28;45276;-78
2021/09/14 04:34:30;;;;;;;;;13.67;12.00;;;;;21.24;68.07;100749.44;5029820;28;45533;-80
2021/09/14 04:36:56;;;;;;;;;14.00;13.00;;;;;21.24;67.75;100732.47;5027555;28;45700;-81
2021/09/14 04:39:22;;;;;;;;;14.00;12.00;;;;;21.23;68.27;100714.59;5029232;28;47474;-84
2021/09/14 04:41:47;;;;;;;;;15.67;15.67;;;;;21.21;68.40;100703.94;5025085;28;57514;-80
2021/09/14 04:44:13;;;;;;;;;12.00;10.33;;;;;21.24;68.45;100692.19;5034850;28;45434;-80
2021/09/14 04:46:38;;;;;;;;;15.67;12.00;;;;;21.22;68.40;100661.84;5028493;28;45539;-77
2021/09/14 04:49:04;;;;;;;;;14.00;12.00;;;;;21.23;68.70;100655.53;5033292;28;48852;-78
2021/09/14 04:51:30;;;;;;;;;15.67;11.67;;;;;21.24;68.17;100658.16;5030395;28;45436;-77
2021/09/14 04:53:55;;;;;;;;;15.00;13.67;;;;;21.23;68.21;100666.28;5032402;28;45394;-77
2021/09/14 04:56:20;;;;;;;;;14.67;13.67;;;;;21.23;68.98;100652.84;5032498;28;45490;-77
2021/09/14 04:58:46;;;;;;;;;18.00;14.33;;;;;21.21;68.63;100642.16;5027600;28;59659;-79
2021/09/14 05:01:14;;;;;;;;;13.00;12.67;;;;;21.22;68.50;100637.66;5024986;28;45213;-76
2021/09/14 05:03:40;;;;;;;;;13.00;13.00;;;;;21.19;69.18;100631.47;5030240;28;45455;-78
2021/09/14 05:06:05;;;;;;;;;14.33;13.00;;;;;21.18;68.68;100636.88;5025862;28;49961;-78
2021/09/14 05:08:31;;;;;;;;;13.00;13.00;;;;;21.18;68.94;100648.50;5022594;28;47205;-78
2021/09/14 05:10:58;;;;;;;;;16.00;15.00;;;;;21.16;68.78;100650.38;5032678;28;45390;-78
2021/09/14 05:13:23;;;;;;;;;13.67;10.33;;;;;21.14;68.77;100676.38;5030816;28;45325;-79
2021/09/14 05:15:49;;;;;;;;;16.33;15.67;;;;;21.12;69.06;100698.88;5029454;28;53255;-77
2021/09/14 05:18:14;;;;;;;;;13.00;12.67;;;;;21.06;70.79;100699.97;5035148;28;51792;-74
2021/09/14 05:20:40;;;;;;;;;16.00;14.33;;;;;20.93;71.33;100690.56;5033836;28;45411;-73
2021/09/14 05:23:16;;;;;;;;;15.33;14.33;;;;;20.91;71.03;100705.84;5033973;28;45542;-73
2021/09/14 05:25:43;;;;;;;;;17.67;16.00;;;;;20.83;72.89;100710.59;5035675;28;45199;-73
2021/09/14 05:28:11;;;;;;;;;15.00;14.67;;;;;20.78;72.28;100723.31;5035129;28;46372;-75
2021/09/14 05:30:36;;;;;;;;;16.00;15.00;;;;;20.72;73.19;100708.28;5025930;28;45405;-74
2021/09/14 05:33:01;;;;;;;;;18.67;13.67;;;;;20.65;72.80;100717.44;5027677;28;45595;-74
2021/09/14 05:35:32;;;;;;;;;18.33;16.33;;;;;20.63;73.30;100735.41;5028460;28;45805;-75
2021/09/14 05:37:57;;;;;;;;;16.33;15.33;;;;;20.62;73.43;100749.75;5027814;28;46587;-75
2021/09/14 05:40:23;;;;;;;;;15.33;15.00;;;;;20.60;73.42;100751.59;5034384;28;58979;-74
2021/09/14 05:42:48;;;;;;;;;18.33;14.67;;;;;20.60;72.59;100762.31;5036289;28;45750;-73
2021/09/14 05:45:13;;;;;;;;;20.00;17.33;;;;;20.58;73.31;100759.69;5038433;28;45265;-74
2021/09/14 05:47:39;;;;;;;;;19.00;15.67;;;;;20.54;74.08;100768.75;5038101;28;61214;-75
2021/09/14 05:50:05;;;;;;;;;21.33;16.67;;;;;20.56;74.12;100774.06;5024364;28;51150;-75
2021/09/14 05:52:30;;;;;;;;;17.00;16.00;;;;;20.56;74.05;100795.53;5023075;28;46357;-74
2021/09/14 05:54:55;;;;;;;;;17.00;17.00;;;;;20.55;73.66;100800.00;5023296;28;47867;-75
2021/09/14 05:57:21;;;;;;;;;17.33;16.00;;;;;20.56;73.67;100825.94;5019832;28;58045;-74
2021/09/14 05:59:46;;;;;;;;;17.33;15.33;;;;;20.58;74.29;100839.28;5020280;28;45344;-77
2021/09/14 06:02:11;;;;;;;;;15.33;15.33;;;;;20.59;74.84;100844.59;5021844;28;49122;-75
2021/09/14 06:04:37;;;;;;;;;16.00;16.00;;;;;20.60;75.61;100845.47;5025607;28;45402;-75
2021/09/14 06:07:02;;;;;;;;;20.00;16.33;;;;;20.62;73.92;100846.34;5031131;28;57661;-79
2021/09/14 06:09:28;;;;;;;;;20.00;16.33;;;;;20.65;73.76;100859.63;5031127;28;45404;-75
2021/09/14 06:11:54;;;;;;;;;17.00;15.33;;;;;20.68;73.90;100856.88;5029062;28;45475;-76
2021/09/14 06:14:19;;;;;;;;;23.00;18.33;;;;;20.69;73.54;100861.31;5023590;28;55439;-75
2021/09/14 06:16:44;;;;;;;;;13.33;13.33;;;;;20.64;73.71;100841.78;5023967;28;46654;-76
2021/09/14 06:19:11;;;;;;;;;16.00;14.67;;;;;20.75;74.63;100861.13;5025364;28;58874;-74
2021/09/14 06:21:37;;;;;;;;;17.33;16.00;;;;;20.75;74.23;100861.13;5021278;28;45531;-72
2021/09/14 06:24:05;;;;;;;;;16.33;14.00;;;;;20.78;73.30;100865.53;5024672;28;45383;-74
2021/09/14 06:26:31;;;;;;;;;17.00;15.33;;;;;20.79;73.76;100862.78;5020995;28;47468;-74
2021/09/14 06:28:56;;;;;;;;;14.67;12.00;;;;;20.79;73.73;100865.47;5033190;28;45491;-74
2021/09/14 06:31:21;;;;;;;;;14.33;13.33;;;;;20.81;73.27;100868.09;5033101;28;52645;-75
2021/09/14 06:33:47;;;;;;;;;18.00;16.33;;;;;20.81;72.61;100855.56;5022206;28;48361;-75
2021/09/14 06:36:12;;;;;;;;;15.33;14.33;;;;;20.84;73.62;100868.91;5023825;28;56415;-77
2021/09/14 06:38:38;;;;;;;;;21.00;16.00;;;;;20.84;73.79;100865.34;5026316;28;58085;-78
2021/09/14 06:41:04;;;;;;;;;14.33;14.00;;;;;20.82;73.73;100854.63;5034947;28;45360;-75
2021/09/14 06:43:29;;;;;;;;;15.33;13.00;;;;;20.86;74.14;100863.47;5030871;28;45278;-77
2021/09/14 06:45:54;;;;;;;;;17.00;13.33;;;;;20.86;72.91;100875.09;5030142;28;46969;-77
2021/09/14 06:48:20;;;;;;;;;13.00;13.00;;;;;20.88;73.47;100859.84;5018849;28;54493;-76
2021/09/14 06:50:45;;;;;;;;;15.67;15.67;;;;;20.87;73.80;100851.81;5024849;28;45670;-75
2021/09/14 06:53:12;;;;;;;;;14.00;13.33;;;;;20.85;74.01;100853.66;5034315;28;45451;-76
2021/09/14 06:55:37;;;;;;;;;13.33;12.33;;;;;20.83;73.20;100848.34;5033333;28;46934;-75
2021/09/14 06:58:03;;;;;;;;;14.33;13.00;;;;;20.84;74.21;100857.28;5031992;28;45468;-76
2021/09/14 07:00:28;;;;;;;;;14.67;12.00;;;;;20.83;74.57;100872.50;5030924;28;45892;-76
2021/09/14 07:02:53;;;;;;;;;11.67;11.67;;;;;20.81;74.88;100868.97;5022592;28;45395;-75
2021/09/14 07:05:19;;;;;;;;;14.67;14.00;;;;;20.77;74.89;100861.06;5027349;28;58510;-76
2021/09/14 07:07:45;;;;;;;;;14.00;13.00;;;;;20.78;73.96;100853.00;5032872;28;45387;-76
2021/09/14 07:10:11;;;;;;;;;14.00;12.33;;;;;20.76;74.66;100845.91;5032526;28;45438;-75
2021/09/14 07:12:39;;;;;;;;;13.00;10.33;;;;;20.77;74.68;100853.88;5033527;28;45427;-75
2021/09/14 07:15:05;;;;;;;;;14.67;11.67;;;;;20.74;74.97;100837.91;5027253;28;46768;-74
2021/09/14 07:17:30;;;;;;;;;13.67;13.67;;;;;20.73;75.22;100830.78;5030610;28;45420;-75
2021/09/14 07:19:55;;;;;;;;;12.33;12.33;;;;;20.74;74.99;100812.88;5023887;28;45581;-75
2021/09/14 07:22:21;;;;;;;;;14.00;12.33;;;;;20.73;75.80;100793.22;5025608;28;50762;-75
2021/09/14 07:24:46;;;;;;;;;11.67;11.67;;;;;20.74;75.64;100775.31;5024698;28;46568;-74
2021/09/14 07:27:12;;;;;;;;;10.67;10.33;;;;;20.70;75.78;100755.72;5022986;28;50762;-75
2021/09/14 07:29:37;;;;;;;;;12.33;10.33;;;;;20.75;74.71;100771.69;5029125;28;52463;-75
2021/09/14 07:32:03;;;;;;;;;13.67;12.33;;;;;20.77;74.52;100772.50;5026448;28;48270;-75
2021/09/14 07:34:29;;;;;;;;;16.33;10.00;;;;;20.83;74.86;100781.25;5031705;28;46289;-75
2021/09/14 07:36:55;;;;;;;;;14.33;12.67;;;;;20.88;75.38;100805.28;5024324;28;45276;-75
2021/09/14 07:41:52;;;;;;;;;10.67;10.67;;;;;20.98;75.92;100813.88;5058375;28;47116;-74
2021/09/14 07:44:17;;;;;;;;;16.00;12.67;;;;;21.05;75.28;100812.78;5061845;28;57169;-76
2021/09/14 07:46:43;;;;;;;;;14.67;14.00;;;;;21.11;74.62;100820.63;5067151;28;55690;-75
2021/09/14 07:49:08;;;;;;;;;11.33;11.33;;;;;21.18;75.23;100824.84;5071876;28;46634;-75
2021/09/14 07:51:33;;;;;;;;;15.00;12.00;;;;;21.27;74.15;100835.31;5067125;28;45632;-74
2021/09/14 07:53:59;;;;;;;;;16.00;14.00;;;;;21.35;74.31;100837.75;5066114;28;54927;-75
2021/09/14 07:56:24;;;;;;;;;13.00;12.00;;;;;21.44;74.58;100841.03;5064507;28;61198;-74
2021/09/14 07:58:49;;;;;;;;;15.00;11.67;;;;;21.54;74.02;100838.03;5068300;28;45550;-73
2021/09/14 08:01:15;;;;;;;;;13.33;12.00;;;;;21.62;73.09;100833.25;5046363;28;50650;-74
2021/09/14 08:03:40;;;;;;;;;14.00;13.00;;;;;21.72;73.75;100834.69;5063346;28;55028;-74
2021/09/14 08:06:06;;;;;;;;;15.33;14.33;;;;;21.79;73.53;100828.19;5064717;28;45410;-75
2021/09/14 08:08:31;;;;;;;;;11.33;11.00;;;;;21.85;73.51;100824.41;5058158;28;45630;-74
2021/09/14 08:10:56;;;;;;;;;15.00;11.67;;;;;21.88;73.53;100833.22;5070256;28;45422;-74
2021/09/14 08:13:24;;;;;;;;;17.00;11.00;;;;;21.96;73.08;100847.28;5069135;28;61574;-74
2021/09/14 08:15:49;;;;;;;;;11.67;11.33;;;;;21.99;72.84;100840.91;5066346;28;45216;-75
2021/09/14 08:18:15;;;;;;;;;10.33;10.33;;;;;22.05;72.64;100842.47;5068057;28;45360;-75
2021/09/14 08:20:40;;;;;;;;;11.67;6.67;;;;;22.08;72.34;100858.53;5068527;28;45737;-74
2021/09/14 08:23:06;;;;;;;;;11.67;9.67;;;;;22.08;72.30;100862.09;5073547;28;46523;-75
2021/09/14 08:25:31;;;;;;;;;14.33;12.33;;;;;22.11;71.95;100861.16;5066546;28;56934;-74
2021/09/14 08:27:57;;;;;;;;;14.00;14.00;;;;;22.12;72.47;100861.06;5071562;28;45557;-74
2021/09/14 08:30:23;;;;;;;;;15.00;13.67;;;;;22.12;72.39;100858.38;5070029;28;45500;-74
2021/09/14 08:32:48;;;;;;;;;16.33;13.33;;;;;22.17;72.43;100860.91;5066132;28;47521;-74
2021/09/14 08:35:13;;;;;;;;;21.67;14.00;;;;;22.16;71.82;100860.03;5072136;28;46725;-74
2021/09/14 08:37:39;;;;;;;;;18.00;15.67;;;;;22.14;72.03;100866.41;5069532;28;45555;-74
2021/09/14 08:40:05;;;;;;;;;13.67;11.67;;;;;22.13;72.33;100865.53;5046398;28;52290;-74
2021/09/14 08:42:31;;;;;;;;;14.00;13.00;;;;;22.12;72.89;100853.00;5066075;28;47385;-74
2021/09/14 08:44:56;;;;;;;;;13.33;12.33;;;;;22.14;72.54;100861.88;5060481;28;45447;-75
2021/09/14 08:47:22;;;;;;;;;17.67;15.00;;;;;22.14;72.66;100867.28;5069696;28;50010;-74
2021/09/14 08:49:47;;;;;;;;;13.33;13.00;;;;;22.20;72.25;100887.69;5060752;28;45491;-74
2021/09/14 08:52:15;;;;;;;;;14.67;13.00;;;;;22.20;72.18;100887.69;5060303;28;54071;-75
2021/09/14 08:54:41;;;;;;;;;13.33;11.67;;;;;22.29;72.08;100886.47;5064457;28;45501;-74
2021/09/14 08:57:06;;;;;;;;;15.00;15.00;;;;;22.37;71.79;100885.28;5053370;28;45368;-74
2021/09/14 08:59:33;;;;;;;;;17.00;14.33;;;;;22.46;72.00;100875.97;5066476;28;45420;-74
2021/09/14 09:01:59;;;;;;;;;13.67;12.67;;;;;22.53;71.41;100869.44;5073360;28;46571;-74
2021/09/14 09:04:24;;;;;;;;;14.33;13.33;;;;;22.60;71.59;100867.38;5064551;28;45458;-74
2021/09/14 09:06:50;;;;;;;;;16.00;13.33;;;;;22.66;71.92;100877.91;5071151;28;54508;-74
2021/09/14 09:09:16;;;;;;;;;14.67;12.33;;;;;22.73;71.33;100866.84;5059346;28;52913;-74
2021/09/14 09:11:55;;;;;;;;;12.67;12.67;;;;;22.84;71.58;100866.41;5063643;28;46721;-75
2021/09/14 09:14:37;;;;;;;;;17.67;13.67;;;;;22.93;70.64;100866.09;5070251;28;45390;-74
2021/09/14 09:17:13;;;;;;;;;10.67;10.67;;;;;23.00;70.84;100864.91;5056338;28;45507;-75
2021/09/14 09:19:39;;;;;;;;;14.33;13.33;;;;;23.07;70.87;100875.47;5071827;28;45442;-74
2021/09/14 09:22:06;;;;;;;;;8.67;8.67;;;;;23.15;70.32;100870.63;5079078;28;45666;-73
2021/09/14 09:24:52;;;;;;;;;15.00;12.00;;;;;23.15;70.26;100876.00;5068835;28;45438;-74
2021/09/14 09:27:20;;;;;;;;;16.33;15.33;;;;;23.14;70.05;100867.06;5068711;28;45438;-75
2021/09/14 09:30:17;;;;;;;;;12.33;12.00;;;;;23.14;70.70;100876.94;5065156;28;45467;-74
2021/09/14 09:32:46;;;;;;;;;12.33;11.67;;;;;23.12;70.58;100877.03;5044939;28;46877;-74
2021/09/14 09:35:13;;;;;;;;;11.33;11.00;;;;;23.12;70.23;100879.72;5068756;28;45488;-75
2021/09/14 09:37:38;;;;;;;;;11.67;11.00;;;;;23.14;69.98;100895.81;5049810;28;45487;-75
2021/09/14 09:40:05;;;;;;;;;16.00;14.33;;;;;23.10;70.33;100878.88;5075187;28;45358;-74
2021/09/14 09:42:31;;;;;;;;;13.67;11.33;;;;;23.23;69.95;100881.97;5077251;28;47726;-74
2021/09/14 09:44:58;;;;;;;;;13.00;11.67;;;;;23.30;70.20;100871.81;5070585;28;45500;-75
2021/09/14 09:47:23;;;;;;;;;16.67;15.00;;;;;23.46;70.39;100878.31;5068723;28;45494;-75
2021/09/14 09:49:49;;;;;;;;;13.00;13.00;;;;;23.53;70.02;100871.72;5066712;28;45461;-74
2021/09/14 09:52:15;;;;;;;;;9.00;7.67;;;;;23.54;69.53;100857.31;5067147;28;46544;-75
2021/09/14 09:54:40;;;;;;;;;13.67;13.67;;;;;23.66;69.79;100867.63;5063900;28;45465;-73
2021/09/14 09:57:09;;;;;;;;;16.67;12.67;;;;;23.68;69.43;100854.94;5066000;28;56633;-75
2021/09/14 09:59:34;;;;;;;;;13.67;9.67;;;;;23.72;68.88;100861.97;5065961;28;45530;-74
2021/09/14 10:02:20;;;;;;;;;14.67;13.00;;;;;23.72;69.05;100858.38;5067531;28;47336;-73
2021/09/14 10:05:35;;;;;;;;;11.33;11.33;;;;;23.81;69.00;100857.09;5035998;28;45456;-75
2021/09/14 10:08:12;;;;;;;;;11.67;11.67;;;;;23.82;69.05;100840.88;5066153;28;45418;-74
2021/09/14 10:10:38;;;;;;;;;16.33;13.67;;;;;24.00;68.73;100858.94;5076815;28;45572;-73
2021/09/14 10:13:05;;;;;;;;;14.00;13.00;;;;;24.04;68.80;100848.88;5064856;28;46329;-74
2021/09/14 10:15:40;;;;;;;;;13.33;13.33;;;;;24.13;68.41;100866.47;5060860;28;45383;-74
2021/09/14 10:18:06;;;;;;;;;16.00;13.67;;;;;24.13;68.31;100861.97;5061746;28;45289;-74
2021/09/14 10:20:39;;;;;;;;;12.00;12.00;;;;;24.20;68.13;100870.66;5060350;28;45317;-75
2021/09/14 10:23:16;;;;;;;;;16.33;14.00;;;;;24.25;68.07;100874.03;5058668;28;47294;-75
2021/09/14 10:25:45;;;;;;;;;13.67;12.00;;;;;24.28;67.62;100858.56;5065740;28;45445;-75
2021/09/14 10:28:12;;;;;;;;;13.67;11.00;;;;;24.25;67.35;100864.13;5066433;28;45423;-74
2021/09/14 10:30:37;;;;;;;;;13.33;11.00;;;;;24.25;67.54;100850.63;5065870;28;45514;-74
2021/09/14 10:33:04;;;;;;;;;11.00;11.00;;;;;24.29;67.91;100849.53;5066335;28;45695;-74
2021/09/14 10:35:33;;;;;;;;;11.67;10.33;;;;;24.35;67.75;100856.50;5068523;28;45395;-74
2021/09/14 10:38:10;;;;;;;;;14.67;12.33;;;;;24.40;66.44;100872.50;5071571;28;45304;-74
2021/09/14 10:40:53;;;;;;;;;12.00;11.00;;;;;24.38;66.79;100867.16;5067392;28;45632;-75
2021/09/14 10:43:22;;;;;;;;;12.67;10.00;;;;;24.35;67.44;100855.59;5071013;28;46576;-74
2021/09/14 10:45:48;;;;;;;;;12.33;11.00;;;;;24.36;66.94;100862.78;5059880;28;45185;-73
2021/09/14 10:48:21;;;;;;;;;9.00;9.00;;;;;24.32;67.06;100856.59;5041655;28;45435;-73
2021/09/14 10:50:47;;;;;;;;;12.00;11.00;;;;;24.36;67.27;100860.97;5070545;28;45613;-73
2021/09/14 10:53:28;;;;;;;;;11.00;11.00;;;;;24.34;66.04;100848.44;5051761;28;61269;-73
2021/09/14 10:55:55;;;;;;;;;10.00;10.00;;;;;24.41;66.33;100855.34;5059220;28;45516;-73
2021/09/14 10:58:21;;;;;;;;;11.67;11.00;;;;;24.40;66.34;100850.91;5053559;28;45351;-73
2021/09/14 11:00:48;;;;;;;;;9.67;9.67;;;;;24.43;66.90;100854.31;5062718;28;50718;-73
2021/09/14 11:03:14;;;;;;;;;12.00;11.33;;;;;24.49;66.43;100858.56;5048597;28;46016;-75
2021/09/14 11:05:40;;;;;;;;;15.00;13.00;;;;;24.53;66.48;100850.25;5062071;28;45449;-77
2021/09/14 11:08:06;;;;;;;;;12.33;10.00;;;;;24.61;66.35;100862.50;5070137;28;49923;-73
2021/09/14 11:10:34;;;;;;;;;10.67;10.33;;;;;24.69;66.43;100858.50;5063735;28;45455;-74
2021/09/14 11:12:59;;;;;;;;;10.33;9.33;;;;;24.80;65.72;100860.69;5073731;28;46858;-73
2021/09/14 11:15:25;;;;;;;;;11.00;9.00;;;;;24.91;65.85;100857.47;5067885;28;60762;-74
2021/09/14 11:17:50;;;;;;;;;8.33;8.33;;;;;25.01;65.19;100859.66;5061787;28;45418;-73
2021/09/14 11:20:20;;;;;;;;;9.33;6.67;;;;;25.08;65.77;100853.03;5070737;28;45481;-74
2021/09/14 11:22:46;;;;;;;;;13.33;8.00;;;;;25.19;64.14;100851.63;5044455;28;47315;-75
2021/09/14 11:25:16;;;;;;;;;13.00;11.33;;;;;25.33;63.93;100859.94;5064720;28;45463;-73
2021/09/14 11:27:52;;;;;;;;;9.33;8.00;;;;;25.42;63.77;100856.78;5077235;28;45354;-74
2021/09/14 11:30:18;;;;;;;;;10.00;7.33;;;;;25.48;63.42;100863.72;5052103;28;45317;-74
2021/09/14 11:32:44;;;;;;;;;8.00;8.00;;;;;25.49;63.40;100852.81;5068705;28;57786;-74
2021/09/14 11:35:10;;;;;;;;;7.00;7.00;;;;;25.45;63.37;100859.31;5050831;28;45540;-74
2021/09/14 11:37:35;;;;;;;;;8.00;8.00;;;;;25.46;62.89;100852.97;5066822;28;45500;-74
2021/09/14 11:40:01;;;;;;;;;9.00;8.00;;;;;25.52;63.32;100849.97;5067232;28;45344;-73
2021/09/14 11:42:26;;;;;;;;;9.33;8.33;;;;;25.60;62.75;100845.03;5051584;28;56983;-75
2021/09/14 11:45:05;;;;;;;;;8.67;7.00;;;;;25.68;63.14;100839.25;5065610;28;45528;-73
2021/09/14 11:47:31;;;;;;;;;10.33;8.00;;;;;25.81;62.51;100844.91;5077050;28;45454;-74
2021/09/14 11:49:56;;;;;;;;;13.00;10.00;;;;;25.95;62.25;100847.78;5076240;28;45445;-74
2021/09/14 11:52:22;;;;;;;;;8.00;7.67;;;;;26.07;61.37;100846.25;5068159;28;47488;-73
2021/09/14 11:54:47;;;;;;;;;8.67;7.33;;;;;26.24;60.82;100838.09;5059838;28;47182;-73
2021/09/14 11:57:17;;;;;;;;;9.67;8.00;;;;;26.38;60.50;100835.50;5065302;28;45648;-73
2021/09/14 11:59:43;;;;;;;;;8.00;8.00;;;;;26.41;60.57;100839.88;5076600;28;45415;-73
2021/09/14 12:02:08;;;;;;;;;7.33;7.33;;;;;26.38;60.03;100846.34;5063418;28;63079;-74
2021/09/14 12:04:34;;;;;;;;;9.00;8.33;;;;;26.36;60.08;100845.53;5071676;28;45556;-72
2021/09/14 12:06:59;;;;;;;;;9.33;8.33;;;;;26.35;59.79;100838.38;5040196;28;53289;-73